createdAt,value
2022-12-12T00:00:27.112Z,97679.17
2022-12-12T00:02:53.979Z,97682.38
2022-12-12T00:05:20.687Z,97687.69
2022-12-12T00:07:47.446Z,97686.81
2022-12-12T00:10:14.159Z,97687.23
2022-12-12T00:12:40.949Z,97688.10
2022-12-12T00:15:08.069Z,97690.27
2022-12-12T00:17:34.773Z,97689.61
2022-12-12T00:20:01.588Z,97691.58
2022-12-12T00:22:28.217Z,97692.52
2022-12-12T00:24:54.884Z,97689.11
2022-12-12T00:27:21.563Z,97688.18
2022-12-12T00:29:53.153Z,97686.27
2022-12-12T00:32:19.935Z,97692.09
2022-12-12T00:34:46.730Z,97707.04
2022-12-12T00:37:13.405Z,97717.96
2022-12-12T00:39:41.879Z,97729.69
2022-12-12T00:42:08.594Z,97729.63
2022-12-12T00:44:35.267Z,97730.10
2022-12-12T00:47:02.868Z,97729.70
2022-12-12T00:49:30.293Z,97728.06
2022-12-12T00:51:56.959Z,97720.98
2022-12-12T00:54:23.754Z,97720.65
2022-12-12T00:56:50.311Z,97717.65
2022-12-12T00:59:17.130Z,97718.66
2022-12-12T01:01:44.559Z,97717.77
2022-12-12T01:04:11.255Z,97713.20
2022-12-12T01:06:37.956Z,97714.73
2022-12-12T01:09:04.673Z,97715.31
2022-12-12T01:11:31.395Z,97715.65
2022-12-12T01:13:58.070Z,97717.27
2022-12-12T01:16:24.979Z,97715.13
2022-12-12T01:18:51.726Z,97717.84
2022-12-12T01:21:19.034Z,97718.33
2022-12-12T01:23:45.739Z,97713.96
2022-12-12T01:26:14.475Z,97716.51
2022-12-12T01:28:41.277Z,97716.70
2022-12-12T01:31:07.929Z,97729.90
2022-12-12T01:33:34.664Z,97731.14
2022-12-12T01:36:01.323Z,97739.80
2022-12-12T01:38:27.961Z,97744.58
2022-12-12T01:40:54.643Z,97755.20
2022-12-12T01:43:22.389Z,97749.96
2022-12-12T01:46:02.603Z,97738.71
2022-12-12T01:48:31.983Z,97739.95
2022-12-12T01:50:59.718Z,97728.40
2022-12-12T01:53:26.589Z,97740.92
2022-12-12T01:55:53.169Z,97736.17
2022-12-12T01:58:19.807Z,97735.84
2022-12-12T02:00:46.565Z,97735.41
2022-12-12T02:03:13.178Z,97739.77
2022-12-12T02:05:42.221Z,97737.94
2022-12-12T02:08:08.969Z,97735.94
2022-12-12T02:10:35.672Z,97737.79
2022-12-12T02:13:04.767Z,97743.55
2022-12-12T02:15:40.523Z,97738.85
2022-12-12T02:18:19.308Z,97728.05
2022-12-12T02:21:07.666Z,97712.26
2022-12-12T02:24:12.011Z,97701.23
2022-12-12T02:27:09.798Z,97708.73
2022-12-12T02:29:41.659Z,97742.94
2022-12-12T02:32:21.522Z,97728.95
2022-12-12T02:35:23.708Z,97671.16
2022-12-12T02:38:05.499Z,97633.75
2022-12-12T02:40:43.403Z,97653.49
2022-12-12T02:43:30.209Z,97677.17
2022-12-12T02:45:59.545Z,97700.27
2022-12-12T02:48:37.530Z,97730.30
2022-12-12T02:51:05.432Z,97734.60
2022-12-12T02:53:32.103Z,97722.94
2022-12-12T02:56:42.267Z,97733.09
2022-12-12T02:59:09.365Z,97736.64
2022-12-12T03:01:57.166Z,97727.14
2022-12-12T03:05:01.215Z,97719.14
2022-12-12T03:07:49.382Z,97707.36
2022-12-12T03:10:32.446Z,97710.98
2022-12-12T03:13:21.738Z,97735.46
2022-12-12T03:15:54.494Z,97744.81
2022-12-12T03:18:27.093Z,97748.85
2022-12-12T03:21:17.392Z,97754.27
2022-12-12T03:23:45.248Z,97751.71
2022-12-12T03:26:15.016Z,97749.85
2022-12-12T03:29:05.756Z,97764.05
2022-12-12T03:31:32.822Z,97764.48
2022-12-12T03:34:08.943Z,97753.53
2022-12-12T03:36:45.733Z,97759.69
2022-12-12T03:39:45.582Z,97752.52
2022-12-12T03:42:20.337Z,97751.06
2022-12-12T03:44:49.788Z,97766.89
2022-12-12T03:47:21.571Z,97778.98
2022-12-12T03:50:11.747Z,97787.86
2022-12-12T03:52:44.358Z,97781.35
2022-12-12T03:55:19.596Z,97784.45
2022-12-12T03:57:52.343Z,97785.65
2022-12-12T04:00:19.121Z,97796.14
2022-12-12T04:03:02.345Z,97799.74
2022-12-12T04:05:35.885Z,97793.33
2022-12-12T04:08:05.228Z,97786.77
2022-12-12T04:10:53.721Z,97793.91
2022-12-12T04:13:33.565Z,97799.05
2022-12-12T04:16:04.712Z,97786.81
2022-12-12T04:18:49.610Z,97781.30
2022-12-12T04:21:57.775Z,97783.60
2022-12-12T04:24:40.656Z,97783.92
2022-12-12T04:27:24.592Z,97773.79
2022-12-12T04:30:05.120Z,97780.88
2022-12-12T04:33:14.384Z,97790.55
2022-12-12T04:35:45.608Z,97799.98
2022-12-12T04:38:22.920Z,97816.63
2022-12-12T04:40:51.728Z,97809.48
2022-12-12T04:43:21.024Z,97807.98
2022-12-12T04:45:51.028Z,97802.09
2022-12-12T04:48:19.624Z,97797.58
2022-12-12T04:50:48.809Z,97788.96
2022-12-12T04:53:18.564Z,97780.91
2022-12-12T04:55:50.924Z,97776.06
2022-12-12T04:58:17.678Z,97778.06
2022-12-12T05:00:59.677Z,97785.58
2022-12-12T05:03:47.731Z,97798.42
2022-12-12T05:06:15.086Z,97810.55
2022-12-12T05:08:43.507Z,97812.73
2022-12-12T05:11:10.353Z,97814.56
2022-12-12T05:13:37.779Z,97815.77
2022-12-12T05:16:10.710Z,97815.02
2022-12-12T05:18:37.383Z,97825.02
2022-12-12T05:21:04.196Z,97833.59
2022-12-12T05:23:34.612Z,97835.73
2022-12-12T05:26:07.458Z,97837.06
2022-12-12T05:28:34.210Z,97832.23
2022-12-12T05:31:00.941Z,97832.95
2022-12-12T05:33:27.911Z,97835.84
2022-12-12T05:35:54.613Z,97839.55
2022-12-12T05:38:21.268Z,97843.98
2022-12-12T05:40:48.499Z,97850.91
2022-12-12T05:43:15.303Z,97856.92
2022-12-12T05:45:42.332Z,97862.13
2022-12-12T05:48:09.022Z,97872.14
2022-12-12T05:50:35.754Z,97874.27
2022-12-12T05:53:02.540Z,97877.88
2022-12-12T05:55:29.228Z,97882.11
2022-12-12T05:57:55.903Z,97882.00
2022-12-12T06:00:22.723Z,97881.12
2022-12-12T06:02:49.725Z,97885.80
2022-12-12T06:05:16.620Z,97883.78
2022-12-12T06:07:43.743Z,97886.06
2022-12-12T06:10:10.506Z,97890.30
2022-12-12T06:12:37.336Z,97898.84
2022-12-12T06:15:04.450Z,97899.70
2022-12-12T06:17:33.268Z,97898.95
2022-12-12T06:20:00.613Z,97903.83
2022-12-12T06:22:27.340Z,97903.14
2022-12-12T06:24:54.045Z,97910.38
2022-12-12T06:27:20.884Z,97916.36
2022-12-12T06:29:48.242Z,97918.70
2022-12-12T06:32:14.888Z,97920.40
2022-12-12T06:34:41.633Z,97915.98
2022-12-12T06:37:10.714Z,97919.45
2022-12-12T06:39:42.483Z,97917.40
2022-12-12T06:42:09.066Z,97924.33
2022-12-12T06:44:35.704Z,97925.31
2022-12-12T06:47:02.378Z,97931.63
2022-12-12T06:49:29.077Z,97942.02
2022-12-12T06:51:55.796Z,97947.45
2022-12-12T06:54:22.512Z,97955.30
2022-12-12T06:56:49.494Z,97958.55
2022-12-12T06:59:16.570Z,97956.95
2022-12-12T07:01:43.555Z,97953.50
2022-12-12T07:04:14.021Z,97960.04
2022-12-12T07:06:40.867Z,97961.34
2022-12-12T07:09:08.183Z,97947.90
2022-12-12T07:11:34.847Z,97950.71
2022-12-12T07:14:03.825Z,97952.27
2022-12-12T07:16:30.623Z,97946.68
2022-12-12T07:18:57.297Z,97948.75
2022-12-12T07:21:24.032Z,97951.30
2022-12-12T07:23:50.741Z,97956.77
2022-12-12T07:26:19.483Z,97953.97
2022-12-12T07:28:46.329Z,97949.67
2022-12-12T07:31:14.152Z,97955.04
2022-12-12T07:33:44.390Z,97963.58
2022-12-12T07:36:12.616Z,97973.38
2022-12-12T07:38:39.806Z,97982.10
2022-12-12T07:41:08.246Z,97989.34
2022-12-12T07:43:39.972Z,97998.63
2022-12-12T07:46:10.515Z,97994.34
2022-12-12T07:48:37.236Z,97994.73
2022-12-12T07:51:04.028Z,98002.10
2022-12-12T07:53:30.777Z,98005.00
2022-12-12T07:55:57.483Z,98008.30
2022-12-12T07:58:24.402Z,98019.17
2022-12-12T08:00:51.021Z,98017.73
2022-12-12T08:03:17.681Z,98015.33
2022-12-12T08:05:44.383Z,98011.79
2022-12-12T08:08:11.545Z,98009.02
2022-12-12T08:10:39.379Z,98015.35
2022-12-12T08:13:06.710Z,98016.93
2022-12-12T08:15:33.609Z,98023.48
2022-12-12T08:18:00.260Z,98017.94
2022-12-12T08:20:26.941Z,98020.15
2022-12-12T08:22:53.715Z,98019.05
2022-12-12T08:25:20.493Z,98022.09
2022-12-12T08:27:47.327Z,98023.54
2022-12-12T08:30:14.104Z,98027.27
2022-12-12T08:32:40.803Z,98033.73
2022-12-12T08:35:08.108Z,98006.38
2022-12-12T08:37:34.870Z,98017.81
2022-12-12T08:40:01.597Z,98025.54
2022-12-12T08:42:28.386Z,98025.37
2022-12-12T08:44:55.046Z,98028.13
2022-12-12T08:47:21.877Z,98039.12
2022-12-12T08:49:48.543Z,98037.63
2022-12-12T08:52:15.367Z,98042.09
2022-12-12T08:54:42.119Z,98039.83
2022-12-12T08:57:08.818Z,98038.44
2022-12-12T08:59:35.814Z,98036.58
2022-12-12T09:02:02.719Z,98045.50
2022-12-12T09:04:29.531Z,98041.33
2022-12-12T09:06:56.317Z,98038.00
2022-12-12T09:09:22.934Z,98036.44
2022-12-12T09:11:49.691Z,98036.19
2022-12-12T09:14:16.532Z,98027.27
2022-12-12T09:16:43.457Z,98043.58
2022-12-12T09:19:11.302Z,98045.69
2022-12-12T09:21:37.993Z,98053.64
2022-12-12T09:24:04.859Z,98056.20
2022-12-12T09:26:32.219Z,98063.13
2022-12-12T09:28:58.920Z,98063.48
2022-12-12T09:31:25.667Z,98072.77
2022-12-12T09:33:52.416Z,98082.18
2022-12-12T09:36:19.108Z,98087.52
2022-12-12T09:38:45.841Z,98084.33
2022-12-12T09:41:34.497Z,98085.50
2022-12-12T09:44:12.445Z,98082.37
2022-12-12T09:47:01.085Z,98093.90
2022-12-12T09:49:43.903Z,98105.79
2022-12-12T09:52:27.774Z,98103.20
2022-12-12T09:54:59.213Z,98108.47
2022-12-12T09:57:31.196Z,98104.29
2022-12-12T10:00:04.168Z,98102.13
2022-12-12T10:02:41.017Z,98110.86
2022-12-12T14:51:03.062Z,98314.37
2022-12-12T14:53:39.262Z,98312.53
2022-12-12T14:56:14.400Z,98313.70
2022-12-12T14:59:06.919Z,98314.52
2022-12-12T15:01:47.677Z,98323.89
2022-12-12T15:04:18.807Z,98321.50
2022-12-12T15:06:49.735Z,98326.19
2022-12-12T15:09:23.038Z,98329.35
2022-12-12T15:11:50.244Z,98332.88
2022-12-12T15:14:22.312Z,98335.16
2022-12-12T15:17:28.311Z,98333.64
2022-12-12T15:19:56.228Z,98334.70
2022-12-12T15:22:38.323Z,98345.36
2022-12-12T15:25:16.453Z,98353.56
2022-12-12T15:27:52.172Z,98357.34
2022-12-12T15:30:38.031Z,98363.59
2022-12-12T15:33:14.873Z,98366.11
2022-12-12T15:35:48.699Z,98368.77
2022-12-12T15:38:15.345Z,98375.15
2022-12-12T15:40:43.397Z,98374.04
2022-12-12T15:43:18.978Z,98374.18
2022-12-12T15:45:51.401Z,98377.05
2022-12-12T15:48:18.381Z,98381.65
2022-12-12T15:50:45.840Z,98385.58
2022-12-12T15:53:16.276Z,98384.15
2022-12-12T15:56:00.697Z,98392.48
2022-12-12T15:58:30.069Z,98389.23
2022-12-12T16:01:08.407Z,98392.69
2022-12-12T16:03:55.142Z,98395.34
2022-12-12T16:06:23.964Z,98398.42
2022-12-12T16:09:00.724Z,98399.42
2022-12-12T16:11:43.452Z,98398.77
2022-12-12T16:14:40.313Z,98410.30
2022-12-12T16:17:20.277Z,98404.02
2022-12-12T16:19:59.167Z,98404.31
2022-12-12T16:22:44.143Z,98399.95
2022-12-12T16:25:24.128Z,98407.05
2022-12-12T16:27:57.373Z,98407.55
2022-12-12T16:30:24.541Z,98403.02
2022-12-12T16:32:51.302Z,98395.07
2022-12-12T16:35:20.742Z,98400.17
2022-12-12T16:37:47.469Z,98403.11
2022-12-12T16:40:15.805Z,98408.34
2022-12-12T16:42:44.200Z,98408.92
2022-12-12T16:45:11.714Z,98411.81
2022-12-12T16:47:38.565Z,98416.20
2022-12-12T16:50:05.574Z,98420.65
2022-12-12T16:52:32.259Z,98420.53
2022-12-12T16:54:58.898Z,98420.94
2022-12-12T16:57:25.564Z,98424.80
2022-12-12T16:59:52.277Z,98423.15
2022-12-12T17:02:22.971Z,98421.38
2022-12-12T17:04:49.960Z,98420.38
2022-12-12T17:07:16.726Z,98417.92
2022-12-12T17:09:43.472Z,98420.38
2022-12-12T17:12:11.799Z,98410.94
2022-12-12T17:14:38.671Z,98412.09
2022-12-12T17:17:05.298Z,98411.45
2022-12-12T17:19:32.216Z,98413.98
2022-12-12T17:21:58.817Z,98412.09
2022-12-12T17:24:25.486Z,98412.55
2022-12-12T17:26:52.188Z,98419.64
2022-12-12T17:29:18.845Z,98420.34
2022-12-12T17:31:45.776Z,98422.74
2022-12-12T17:34:12.435Z,98427.98
2022-12-12T17:36:39.117Z,98432.48
2022-12-12T17:39:06.686Z,98434.38
2022-12-12T17:41:33.352Z,98429.82
2022-12-12T17:43:59.986Z,98426.06
2022-12-12T17:46:28.607Z,98423.60
2022-12-12T17:48:57.285Z,98425.96
2022-12-12T17:51:24.345Z,98427.66
2022-12-12T17:53:52.481Z,98428.25
2022-12-12T17:56:21.652Z,98431.08
2022-12-12T17:58:49.470Z,98439.23
2022-12-12T18:01:17.921Z,98439.28
2022-12-12T18:03:45.506Z,98443.86
2022-12-12T18:06:12.484Z,98446.54
2022-12-12T18:08:39.253Z,98448.64
2022-12-12T18:11:06.690Z,98451.52
2022-12-12T18:13:33.369Z,98456.98
2022-12-12T18:16:00.045Z,98456.30
2022-12-12T18:18:26.795Z,98453.71
2022-12-12T18:20:53.638Z,98448.96
2022-12-12T18:23:21.175Z,98446.20
2022-12-12T18:25:47.911Z,98443.61
2022-12-12T18:28:14.663Z,98450.90
2022-12-12T18:30:41.400Z,98453.98
2022-12-12T18:33:08.641Z,98455.23
2022-12-12T18:35:36.272Z,98457.33
2022-12-12T18:38:02.983Z,98454.78
2022-12-12T18:40:29.773Z,98451.85
2022-12-12T18:42:56.896Z,98462.11
2022-12-12T18:45:24.137Z,98470.10
2022-12-12T18:47:50.907Z,98472.77
2022-12-12T18:50:17.612Z,98471.90
2022-12-12T18:52:44.326Z,98475.98
2022-12-12T18:55:10.981Z,98482.24
2022-12-12T18:57:37.620Z,98483.44
2022-12-12T19:00:07.128Z,98477.92
2022-12-12T19:02:38.338Z,98483.30
2022-12-12T20:06:13.659Z,98560.93
2022-12-12T20:08:40.758Z,98561.41
2022-12-12T20:11:09.910Z,98555.11
2022-12-12T20:13:37.278Z,98555.70
2022-12-12T20:16:17.744Z,98555.58
2022-12-12T20:18:44.746Z,98551.26
2022-12-12T20:21:24.715Z,98556.39
2022-12-12T20:23:58.000Z,98553.02
2022-12-12T20:26:26.537Z,98549.67
2022-12-12T20:28:54.128Z,98552.41
2022-12-12T20:31:23.179Z,98553.80
2022-12-12T20:33:50.078Z,98556.64
2022-12-12T20:36:17.773Z,98564.80
2022-12-12T20:38:44.760Z,98562.41
2022-12-12T20:41:22.729Z,98559.94
2022-12-12T20:43:49.526Z,98563.02
2022-12-12T20:46:17.397Z,98557.02
2022-12-12T20:48:44.190Z,98558.58
2022-12-12T20:51:45.670Z,98561.95
2022-12-12T20:54:00.032Z,98565.13
2022-12-12T20:56:27.308Z,98563.35
2022-12-12T20:58:56.026Z,98563.43
2022-12-12T21:01:27.524Z,98563.52
2022-12-12T21:03:54.236Z,98563.28
2022-12-12T21:06:27.064Z,98568.13
2022-12-12T21:08:54.364Z,98569.98
2022-12-12T21:11:22.613Z,98575.63
2022-12-12T21:13:50.687Z,98578.07
2022-12-12T21:16:25.492Z,98578.54
2022-12-12T21:18:53.871Z,98580.89
2022-12-12T21:21:21.169Z,98583.68
2022-12-12T21:23:49.328Z,98586.48
2022-12-12T21:26:20.634Z,98587.02
2022-12-12T21:28:50.832Z,98588.17
2022-12-12T21:31:19.485Z,98591.17
2022-12-12T21:33:46.376Z,98592.96
2022-12-12T21:36:14.583Z,98596.27
2022-12-12T21:38:41.682Z,98592.13
2022-12-12T21:41:10.283Z,98594.67
2022-12-12T21:43:37.187Z,98597.96
2022-12-12T21:46:04.818Z,98597.64
2022-12-12T21:48:31.720Z,98597.48
2022-12-12T21:51:03.193Z,98598.46
2022-12-12T21:53:35.903Z,98589.62
2022-12-12T21:56:06.401Z,98597.23
2022-12-12T21:58:33.819Z,98599.16
2022-12-12T22:01:11.875Z,98598.91
2022-12-12T22:03:38.565Z,98603.36
2022-12-12T22:06:15.553Z,98614.39
2022-12-12T22:08:42.281Z,98616.08
2022-12-12T22:11:09.628Z,98616.58
2022-12-12T22:13:40.140Z,98619.00
2022-12-12T22:16:10.514Z,98622.41
2022-12-12T22:18:37.327Z,98625.91
2022-12-12T22:21:04.873Z,98627.70
2022-12-12T22:23:31.668Z,98632.88
2022-12-12T22:25:58.229Z,98631.96
2022-12-12T22:28:24.937Z,98641.92
2022-12-12T22:30:51.570Z,98635.47
2022-12-12T22:33:18.232Z,98636.62
2022-12-12T22:35:44.865Z,98641.76
2022-12-12T22:38:11.497Z,98643.84
2022-12-12T22:40:38.160Z,98646.02
2022-12-12T22:43:04.851Z,98644.21
2022-12-12T22:45:31.758Z,98643.13
2022-12-12T22:47:58.427Z,98642.42
2022-12-12T22:50:25.101Z,98639.83
2022-12-12T22:52:51.731Z,98640.19
2022-12-12T22:55:18.544Z,98644.95
2022-12-12T22:57:46.609Z,98642.88
2022-12-12T23:00:13.923Z,98646.38
2022-12-12T23:02:40.571Z,98640.12
2022-12-12T23:05:08.965Z,98633.95
2022-12-12T23:07:35.691Z,98634.52
2022-12-12T23:10:02.794Z,98633.54
2022-12-12T23:12:29.842Z,98634.86
2022-12-12T23:14:56.516Z,98642.80
2022-12-12T23:17:23.372Z,98639.55
2022-12-12T23:19:50.032Z,98634.77
2022-12-12T23:22:16.962Z,98643.15
2022-12-12T23:24:43.528Z,98641.05
2022-12-12T23:27:10.362Z,98637.73
2022-12-12T23:29:36.907Z,98642.86
2022-12-12T23:32:03.869Z,98647.55
2022-12-12T23:34:30.651Z,98651.90
2022-12-12T23:36:58.089Z,98654.41
2022-12-12T23:39:25.361Z,98654.62
2022-12-12T23:41:52.365Z,98653.84
2022-12-12T23:44:19.708Z,98657.73
2022-12-12T23:46:46.753Z,98662.97
2022-12-12T23:49:17.415Z,98660.09
2022-12-12T23:51:45.937Z,98652.77
2022-12-12T23:54:15.560Z,98651.79
2022-12-12T23:56:42.245Z,98651.05
2022-12-12T23:59:12.794Z,98652.73
